createdAt,value
2022-09-18T00:01:25.508Z,1.00
2022-09-18T00:03:54.592Z,0.90
2022-09-18T00:06:27.173Z,1.63
2022-09-18T00:08:55.719Z,0.88
2022-09-18T00:11:23.682Z,0.63
2022-09-18T00:13:51.335Z,0.70
2022-09-18T00:16:19.784Z,0.85
2022-09-18T00:18:46.682Z,0.80
2022-09-18T00:21:24.439Z,0.68
2022-09-18T00:23:54.167Z,1.45
2022-09-18T00:26:20.807Z,0.82
2022-09-18T00:28:47.413Z,0.80
2022-09-18T00:31:17.014Z,0.95
2022-09-18T00:33:43.798Z,1.25
2022-09-18T00:36:13.771Z,1.02
2022-09-18T00:38:40.951Z,0.88
2022-09-18T00:41:13.002Z,0.73
2022-09-18T00:43:39.429Z,0.90
2022-09-18T00:46:24.007Z,0.80
2022-09-18T00:49:03.056Z,0.90
2022-09-18T00:51:33.259Z,1.15
2022-09-18T00:54:08.367Z,0.93
2022-09-18T00:56:35.263Z,0.60
2022-09-18T00:59:02.322Z,0.93
2022-09-18T01:01:28.879Z,0.60
2022-09-18T01:03:55.288Z,0.90
2022-09-18T01:06:58.744Z,0.98
2022-09-18T01:09:34.671Z,0.80
2022-09-18T01:12:09.878Z,0.80
2022-09-18T01:15:02.588Z,0.57
2022-09-18T01:17:50.647Z,0.52
2022-09-18T01:20:17.847Z,0.90
2022-09-18T01:23:05.691Z,0.88
2022-09-18T01:26:01.083Z,1.20
2022-09-18T01:28:33.863Z,0.65
2022-09-18T01:31:05.955Z,0.52
2022-09-18T01:33:50.172Z,0.60
2022-09-18T01:36:21.614Z,0.98
2022-09-18T01:39:15.176Z,1.25
2022-09-18T01:41:50.719Z,0.80
2022-09-18T01:44:22.433Z,0.80
2022-09-18T01:46:50.847Z,0.68
2022-09-18T01:49:23.450Z,0.85
2022-09-18T01:52:15.502Z,0.82
2022-09-18T01:54:44.867Z,0.88
2022-09-18T01:57:17.414Z,0.63
2022-09-18T01:59:49.309Z,0.50
2022-09-18T02:02:23.477Z,0.50
2022-09-18T02:07:28.256Z,0.63
2022-09-18T02:09:54.891Z,0.80
2022-09-18T02:12:26.145Z,0.60
2022-09-18T02:14:57.851Z,0.93
2022-09-18T02:17:31.778Z,0.82
2022-09-18T02:20:13.896Z,0.60
2022-09-18T02:22:43.230Z,0.70
2022-09-18T02:25:13.277Z,0.65
2022-09-18T02:27:42.007Z,0.80
2022-09-18T02:30:10.033Z,0.70
2022-09-18T02:32:38.191Z,0.60
2022-09-18T02:35:07.195Z,0.75
2022-09-18T02:37:45.409Z,0.65
2022-09-18T02:40:25.237Z,0.70
2022-09-18T02:43:03.205Z,0.52
2022-09-18T02:45:42.257Z,0.50
2022-09-18T02:48:20.609Z,0.57
2022-09-18T02:51:09.985Z,0.50
2022-09-18T02:53:51.547Z,0.50
2022-09-18T02:56:27.635Z,0.40
2022-09-18T02:59:05.993Z,0.73
2022-09-18T03:01:33.773Z,0.68
2022-09-18T03:04:05.433Z,0.82
2022-09-18T03:06:31.858Z,0.70
2022-09-18T03:08:58.287Z,0.60
2022-09-18T03:11:24.678Z,0.50
2022-09-18T03:13:51.137Z,0.40
2022-09-18T03:16:20.593Z,0.50
2022-09-18T03:18:47.369Z,0.60
2022-09-18T03:21:13.915Z,0.75
2022-09-18T03:23:45.309Z,0.50
2022-09-18T03:26:12.067Z,0.70
2022-09-18T03:28:38.426Z,0.55
2022-09-18T03:31:05.133Z,0.90
2022-09-18T03:33:31.579Z,0.65
2022-09-18T03:35:58.009Z,0.50
2022-09-18T03:38:24.644Z,0.50
2022-09-18T03:40:51.022Z,0.50
2022-09-18T03:43:17.392Z,0.55
2022-09-18T03:45:43.874Z,0.50
2022-09-18T03:48:10.378Z,0.77
2022-09-18T03:50:36.858Z,0.65
2022-09-18T03:53:03.332Z,0.45
2022-09-18T03:55:29.936Z,0.45
2022-09-18T03:58:02.204Z,0.80
2022-09-18T04:00:28.654Z,0.60
2022-09-18T04:02:55.162Z,0.40
2022-09-18T04:05:21.571Z,0.50
2022-09-18T04:07:47.957Z,0.30
2022-09-18T04:10:14.371Z,0.60
2022-09-18T04:12:40.846Z,0.30
2022-09-18T04:15:07.980Z,0.47
2022-09-18T04:17:34.355Z,0.40
2022-09-18T04:20:00.795Z,0.77
2022-09-18T04:22:27.247Z,0.70
2022-09-18T04:24:53.691Z,0.57
2022-09-18T04:27:20.075Z,0.52
2022-09-18T04:29:46.526Z,0.30
2022-09-18T04:32:13.023Z,0.77
2022-09-18T04:34:39.419Z,0.80
2022-09-18T04:37:10.194Z,0.47
2022-09-18T04:39:37.305Z,0.50
2022-09-18T04:42:04.468Z,0.50
2022-09-18T04:44:30.936Z,0.32
2022-09-18T04:46:57.520Z,0.80
2022-09-18T04:49:24.039Z,0.50
2022-09-18T04:51:50.454Z,0.43
2022-09-18T04:54:16.844Z,0.43
2022-09-18T04:56:43.223Z,0.57
2022-09-18T04:59:09.767Z,0.50
2022-09-18T05:01:36.340Z,0.70
2022-09-18T05:04:02.803Z,0.30
2022-09-18T05:06:29.184Z,0.80
2022-09-18T05:08:55.567Z,0.80
2022-09-18T05:11:21.933Z,0.75
2022-09-18T05:13:48.690Z,0.50
2022-09-18T05:16:15.622Z,0.30
2022-09-18T05:18:42.053Z,0.75
2022-09-18T05:21:09.669Z,0.50
2022-09-18T05:23:36.089Z,0.70
2022-09-18T05:26:03.034Z,0.45
2022-09-18T05:28:29.418Z,0.57
2022-09-18T05:31:00.527Z,0.43
2022-09-18T05:33:27.065Z,1.20
2022-09-18T05:35:54.953Z,0.60
2022-09-18T05:38:21.352Z,0.43
2022-09-18T05:40:48.898Z,0.47
2022-09-18T05:43:16.034Z,0.40
2022-09-18T05:45:42.822Z,0.30
2022-09-18T05:48:10.523Z,0.40
2022-09-18T05:50:37.327Z,0.40
2022-09-18T05:53:09.675Z,0.63
2022-09-18T05:55:36.267Z,0.60
2022-09-18T05:58:04.605Z,0.45
2022-09-18T06:00:33.338Z,0.28
2022-09-18T06:03:02.313Z,0.47
2022-09-18T06:05:31.354Z,0.45
2022-09-18T06:07:59.870Z,0.75
2022-09-18T06:10:26.570Z,0.50
2022-09-18T06:13:03.077Z,0.50
2022-09-18T06:15:29.730Z,0.50
2022-09-18T06:17:56.091Z,0.40
2022-09-18T06:20:22.495Z,0.68
2022-09-18T06:22:48.881Z,0.93
2022-09-18T06:25:18.283Z,0.60
2022-09-18T06:27:44.943Z,0.80
2022-09-18T06:30:12.002Z,0.60
2022-09-18T06:32:38.359Z,0.70
2022-09-18T06:35:05.418Z,0.30
2022-09-18T06:37:31.795Z,0.77
2022-09-18T06:39:58.241Z,0.43
2022-09-18T06:42:24.626Z,0.60
2022-09-18T06:44:50.987Z,0.40
2022-09-18T06:47:17.370Z,1.15
2022-09-18T06:49:43.785Z,0.40
2022-09-18T06:52:10.165Z,0.40
2022-09-18T06:54:36.558Z,0.85
2022-09-18T06:57:02.951Z,0.60
2022-09-18T06:59:29.351Z,0.50
2022-09-18T07:01:55.992Z,0.43
2022-09-18T07:04:22.439Z,0.57
2022-09-18T07:06:48.814Z,0.63
2022-09-18T07:09:15.291Z,0.52
2022-09-18T07:11:41.736Z,0.40
2022-09-18T07:14:08.403Z,0.45
2022-09-18T07:16:35.812Z,0.73
2022-09-18T07:19:02.340Z,0.30
2022-09-18T07:21:29.749Z,0.60
2022-09-18T07:23:56.172Z,0.60
2022-09-18T07:26:22.573Z,0.40
2022-09-18T07:28:49.056Z,0.45
2022-09-18T07:31:15.528Z,0.43
2022-09-18T07:33:41.944Z,0.88
2022-09-18T07:36:08.446Z,0.60
2022-09-18T07:38:34.885Z,0.43
2022-09-18T07:41:02.471Z,0.50
2022-09-18T07:43:29.246Z,1.27
2022-09-18T07:45:55.667Z,0.60
2022-09-18T07:48:23.399Z,0.57
2022-09-18T07:50:49.854Z,0.55
2022-09-18T07:53:17.607Z,0.50
2022-09-18T07:55:47.250Z,0.60
2022-09-18T07:58:14.084Z,0.55
2022-09-18T08:00:40.610Z,0.82
2022-09-18T08:03:09.943Z,0.75
2022-09-18T08:05:36.401Z,0.50
2022-09-18T08:08:10.476Z,0.40
2022-09-18T08:10:37.168Z,0.40
2022-09-18T08:13:04.218Z,0.32
2022-09-18T08:15:31.675Z,0.30
2022-09-18T08:17:58.289Z,0.70
2022-09-18T08:20:24.665Z,0.82
2022-09-18T08:22:51.169Z,0.43
2022-09-18T08:25:18.273Z,0.68
2022-09-18T08:27:44.648Z,0.63
2022-09-18T08:30:13.771Z,0.98
2022-09-18T08:32:40.542Z,1.33
2022-09-18T08:35:07.136Z,1.50
2022-09-18T08:37:33.763Z,5.85
2022-09-18T08:40:00.330Z,5.90
2022-09-18T08:42:39.087Z,5.75
2022-09-18T08:45:38.779Z,3.45
2022-09-18T08:48:16.997Z,3.47
2022-09-18T08:50:54.538Z,3.30
2022-09-18T08:53:28.463Z,2.60
2022-09-18T08:55:58.140Z,2.28
2022-09-18T08:58:33.187Z,1.90
2022-09-18T09:01:06.608Z,1.90
2022-09-18T09:03:59.396Z,1.65
2022-09-18T09:06:59.711Z,1.60
2022-09-18T09:09:29.758Z,1.40
2022-09-18T09:12:04.615Z,2.33
2022-09-18T09:14:58.383Z,1.98
2022-09-18T09:17:38.981Z,1.10
2022-09-18T09:20:50.703Z,1.85
2022-09-18T09:23:48.257Z,0.98
2022-09-18T09:26:21.736Z,0.93
2022-09-18T09:28:53.651Z,0.85
2022-09-18T09:31:25.009Z,0.63
2022-09-18T09:34:11.415Z,0.95
2022-09-18T09:36:39.084Z,0.40
2022-09-18T09:39:15.273Z,0.60
2022-09-18T09:42:05.531Z,0.80
2022-09-18T09:44:36.875Z,0.60
2022-09-18T09:47:14.266Z,0.55
2022-09-18T09:49:49.782Z,0.70
2022-09-18T09:52:23.985Z,0.60
2022-09-18T09:57:47.966Z,0.30
2022-09-18T10:00:19.797Z,0.32
2022-09-18T10:03:05.522Z,0.30
2022-09-18T10:05:40.191Z,0.15
2022-09-18T10:08:20.913Z,0.30
2022-09-18T10:10:56.781Z,0.40
2022-09-18T10:13:36.312Z,0.20
2022-09-18T10:16:23.724Z,0.22
2022-09-18T10:18:50.271Z,0.43
2022-09-18T10:21:20.966Z,0.43
2022-09-18T10:24:15.122Z,1.20
2022-09-18T10:26:48.779Z,2.38
2022-09-18T10:29:17.886Z,0.95
2022-09-18T10:31:52.643Z,0.50
2022-09-18T10:34:37.241Z,0.40
2022-09-18T10:39:33.078Z,0.30
2022-09-18T10:42:01.662Z,0.60
2022-09-18T10:44:40.836Z,0.30
2022-09-18T10:47:19.538Z,0.40
2022-09-18T10:49:57.978Z,0.65
2022-09-18T10:52:46.398Z,0.20
2022-09-18T10:55:22.383Z,0.30
2022-09-18T10:57:48.678Z,0.40
2022-09-18T11:00:21.179Z,0.45
2022-09-18T11:03:13.293Z,0.20
2022-09-18T11:06:13.579Z,0.47
2022-09-18T11:08:45.177Z,0.20
2022-09-18T11:11:31.715Z,0.50
2022-09-18T11:14:01.050Z,0.32
2022-09-18T11:16:34.678Z,0.30
2022-09-18T11:19:27.330Z,0.22
2022-09-18T11:21:56.149Z,0.38
2022-09-18T11:24:24.199Z,0.30
2022-09-18T11:27:01.790Z,0.98
2022-09-18T11:29:31.265Z,0.50
2022-09-18T11:32:05.466Z,0.30
2022-09-18T11:34:37.170Z,0.25
2022-09-18T11:37:11.720Z,0.40
2022-09-18T11:39:44.662Z,0.40
2022-09-18T11:42:17.185Z,0.63
2022-09-18T11:44:44.825Z,0.70
2022-09-18T11:47:39.885Z,1.05
2022-09-18T11:52:00.218Z,0.80
2022-09-18T11:57:39.027Z,0.88
2022-09-18T12:00:11.544Z,0.57
2022-09-18T12:02:59.592Z,0.65
2022-09-18T12:05:41.059Z,0.95
2022-09-18T12:08:19.213Z,0.70
2022-09-18T12:10:59.058Z,0.73
2022-09-18T12:13:37.538Z,0.30
2022-09-18T12:16:30.188Z,0.60
2022-09-18T12:19:17.426Z,0.40
2022-09-18T12:22:09.312Z,0.40
2022-09-18T12:24:35.735Z,0.10
2022-09-18T12:27:12.871Z,0.22
2022-09-18T12:30:01.122Z,0.20
2022-09-18T12:32:36.482Z,0.10
2022-09-18T12:35:16.006Z,0.20
2022-09-18T12:37:47.053Z,0.10
2022-09-18T12:40:27.970Z,0.20
2022-09-18T12:43:12.413Z,0.10
2022-09-18T12:45:54.142Z,0.15
2022-09-18T12:48:46.742Z,0.10
2022-09-18T12:51:30.641Z,0.25
2022-09-18T12:54:21.858Z,0.10
2022-09-18T12:57:06.937Z,0.30
2022-09-18T13:00:00.550Z,0.03
2022-09-18T13:02:51.693Z,0.43
2022-09-18T13:05:46.045Z,0.20
2022-09-18T13:08:25.989Z,0.20
2022-09-18T13:10:59.822Z,0.22
2022-09-18T13:13:39.854Z,0.10
2022-09-18T13:16:17.689Z,0.60
2022-09-18T13:18:55.734Z,0.50
2022-09-18T13:21:38.025Z,0.47
2022-09-18T13:24:06.423Z,0.30
2022-09-18T13:26:37.835Z,0.40
2022-09-18T13:29:45.461Z,0.50
2022-09-18T13:32:13.663Z,0.38
2022-09-18T13:34:51.771Z,0.20
2022-09-18T13:37:22.842Z,0.38
2022-09-18T13:40:09.192Z,0.43
2022-09-18T13:42:39.940Z,0.30
2022-09-18T13:45:16.651Z,0.22
2022-09-18T13:48:16.910Z,0.40
2022-09-18T13:50:54.947Z,0.32
2022-09-18T13:53:36.314Z,0.20
2022-09-18T13:56:04.343Z,0.43
2022-09-18T13:58:30.647Z,0.43
2022-09-18T14:01:08.389Z,0.22
2022-09-18T14:03:40.750Z,0.32
2022-09-18T14:06:35.067Z,0.38
2022-09-18T14:09:03.503Z,0.38
2022-09-18T14:11:30.035Z,0.20
2022-09-18T14:13:58.039Z,0.20
2022-09-18T14:16:28.620Z,0.17
2022-09-18T14:19:05.881Z,0.43
2022-09-18T14:21:40.530Z,0.30
2022-09-18T14:24:25.193Z,0.10
2022-09-18T14:26:57.886Z,0.20
2022-09-18T14:29:28.784Z,0.35
2022-09-18T14:31:57.878Z,0.45
2022-09-18T14:34:27.150Z,0.13
2022-09-18T14:37:00.450Z,0.10
2022-09-18T14:39:32.184Z,0.43
2022-09-18T14:42:03.700Z,0.10
2022-09-18T14:44:32.533Z,0.10
2022-09-18T14:47:02.698Z,0.30
2022-09-18T14:49:35.495Z,0.10
2022-09-18T14:52:04.910Z,0.20
2022-09-18T14:54:38.184Z,0.13
2022-09-18T14:57:14.925Z,0.32
2022-09-18T14:59:41.388Z,0.10
2022-09-18T15:02:37.121Z,0.25
2022-09-18T15:05:11.188Z,0.20
2022-09-18T15:10:09.191Z,0.25
2022-09-18T15:12:36.978Z,0.20
2022-09-18T15:15:26.425Z,0.30
2022-09-18T15:17:54.166Z,0.40
2022-09-18T15:20:22.213Z,0.60
2022-09-18T15:22:48.994Z,0.52
2022-09-18T15:25:16.359Z,0.75
2022-09-18T15:27:44.785Z,0.50
2022-09-18T15:30:18.615Z,0.35
2022-09-18T15:33:06.976Z,0.40
2022-09-18T15:35:36.857Z,0.20
2022-09-18T15:38:14.154Z,0.68
2022-09-18T15:40:40.994Z,0.63
2022-09-18T15:43:40.866Z,0.40
2022-09-18T15:46:09.119Z,0.40
2022-09-18T15:48:40.178Z,0.22
2022-09-18T15:51:17.538Z,0.93
2022-09-18T15:54:06.055Z,0.28
2022-09-18T15:56:37.039Z,0.40
2022-09-18T15:59:07.328Z,0.90
2022-09-18T16:01:36.973Z,0.40
2022-09-18T16:04:14.742Z,2.20
2022-09-18T16:06:48.816Z,1.75
2022-09-18T16:11:51.804Z,0.90
2022-09-18T16:14:58.988Z,0.77
2022-09-18T16:17:28.426Z,0.77
2022-09-18T16:19:56.858Z,0.32
2022-09-18T16:22:24.107Z,1.15
2022-09-18T16:24:50.606Z,0.60
2022-09-18T16:27:18.044Z,0.85
2022-09-18T16:29:44.441Z,0.65
2022-09-18T16:32:12.014Z,0.95
2022-09-18T16:34:39.009Z,0.30
2022-09-18T16:37:08.128Z,0.88
2022-09-18T16:39:35.450Z,0.88
2022-09-18T16:42:14.421Z,0.52
2022-09-18T16:44:40.819Z,0.70
2022-09-18T16:47:09.604Z,0.70
2022-09-18T16:49:39.679Z,0.52
2022-09-18T16:52:06.186Z,0.75
2022-09-18T16:54:33.037Z,0.73
2022-09-18T16:57:23.615Z,0.45
2022-09-18T16:59:50.696Z,0.40
2022-09-18T17:02:20.454Z,0.70
2022-09-18T17:04:48.954Z,0.40
2022-09-18T17:07:15.334Z,0.45
2022-09-18T17:09:41.966Z,0.30
2022-09-18T17:12:08.558Z,1.02
2022-09-18T17:14:34.951Z,0.40
2022-09-18T17:17:01.439Z,0.88
2022-09-18T17:19:27.885Z,0.60
2022-09-18T17:21:54.273Z,0.65
2022-09-18T17:24:26.133Z,0.80
2022-09-18T17:26:53.850Z,0.88
2022-09-18T17:29:21.297Z,0.60
2022-09-18T17:31:47.734Z,0.80
2022-09-18T17:34:16.462Z,0.68
2022-09-18T17:36:42.833Z,0.57
2022-09-18T17:39:09.312Z,0.63
2022-09-18T17:41:35.744Z,0.60
2022-09-18T17:44:02.518Z,1.05
2022-09-18T17:46:28.970Z,0.90
2022-09-18T17:48:56.658Z,0.32
2022-09-18T17:51:28.377Z,0.65
2022-09-18T17:54:02.590Z,0.70
2022-09-18T17:56:32.534Z,0.68
2022-09-18T17:59:01.609Z,0.73
2022-09-18T18:01:29.359Z,0.50
2022-09-18T18:03:57.181Z,0.40
2022-09-18T18:06:24.255Z,0.45
2022-09-18T18:08:51.362Z,0.65
2022-09-18T18:11:22.073Z,0.50
2022-09-18T18:13:49.873Z,0.50
2022-09-18T18:16:23.034Z,0.40
2022-09-18T18:18:51.303Z,0.47
2022-09-18T18:21:18.656Z,0.57
2022-09-18T18:23:45.647Z,0.65
2022-09-18T18:26:12.092Z,0.52
2022-09-18T18:28:40.516Z,0.32
2022-09-18T18:31:12.442Z,0.28
2022-09-18T18:33:42.470Z,0.32
2022-09-18T18:36:16.489Z,0.50
2022-09-18T18:41:12.346Z,0.30
2022-09-18T18:43:42.866Z,0.52
2022-09-18T18:46:12.790Z,0.47
2022-09-18T18:48:40.730Z,0.20
2022-09-18T18:51:09.701Z,0.50
2022-09-18T18:53:36.187Z,0.57
2022-09-18T18:56:05.423Z,0.35
2022-09-18T18:58:32.391Z,0.38
2022-09-18T19:01:08.937Z,0.35
2022-09-18T19:03:39.855Z,0.38
2022-09-18T19:06:06.652Z,0.20
2022-09-18T19:08:35.578Z,0.30
2022-09-18T19:11:03.788Z,0.50
2022-09-18T19:13:30.870Z,0.60
2022-09-18T19:15:57.294Z,0.32
2022-09-18T19:18:23.783Z,0.55
2022-09-18T19:20:53.481Z,0.45
2022-09-18T19:23:19.931Z,0.30
2022-09-18T19:25:46.593Z,0.20
2022-09-18T19:28:15.431Z,0.20
2022-09-18T19:30:42.157Z,0.30
2022-09-18T19:33:14.842Z,0.35
2022-09-18T19:35:41.647Z,0.40
2022-09-18T19:38:08.382Z,0.50
2022-09-18T19:40:38.157Z,0.20
2022-09-18T19:43:12.408Z,0.30
2022-09-18T19:45:39.229Z,0.22
2022-09-18T19:48:11.257Z,0.43
2022-09-18T19:50:39.226Z,0.25
2022-09-18T19:53:05.626Z,0.40
2022-09-18T19:55:32.141Z,0.20
2022-09-18T19:57:59.653Z,0.45
2022-09-18T20:00:26.753Z,0.20
2022-09-18T20:02:57.934Z,0.28
2022-09-18T20:05:24.419Z,0.20
2022-09-18T20:07:50.865Z,0.60
2022-09-18T20:10:17.604Z,0.30
2022-09-18T20:12:44.042Z,0.20
2022-09-18T20:15:11.678Z,0.20
2022-09-18T20:17:38.317Z,0.30
2022-09-18T20:20:08.829Z,0.30
2022-09-18T20:22:38.323Z,0.25
2022-09-18T20:25:05.037Z,0.25
2022-09-18T20:27:36.134Z,0.30
2022-09-18T20:30:04.337Z,0.70
2022-09-18T20:32:30.868Z,0.47
2022-09-18T20:34:58.193Z,0.10
2022-09-18T20:37:25.919Z,0.52
2022-09-18T20:39:52.797Z,0.35
2022-09-18T20:42:19.194Z,0.32
2022-09-18T20:44:46.170Z,0.50
2022-09-18T20:47:12.568Z,0.10
2022-09-18T20:49:40.090Z,0.30
2022-09-18T20:52:10.285Z,0.20
2022-09-18T20:54:39.219Z,0.47
2022-09-18T20:57:08.977Z,0.30
2022-09-18T20:59:35.730Z,0.20
2022-09-18T21:02:02.149Z,0.30
2022-09-18T21:04:29.034Z,0.30
2022-09-18T21:06:56.198Z,0.20
2022-09-18T21:09:26.366Z,0.20
2022-09-18T21:11:53.425Z,0.20
2022-09-18T21:14:21.055Z,0.30
2022-09-18T21:16:48.041Z,0.30
2022-09-18T21:19:19.235Z,0.50
2022-09-18T21:21:47.883Z,0.50
2022-09-18T21:24:14.653Z,0.28
2022-09-18T21:26:43.305Z,0.30
2022-09-18T21:29:25.112Z,0.20
2022-09-18T21:31:54.533Z,0.15
2022-09-18T21:34:30.028Z,0.30
2022-09-18T21:37:11.347Z,0.10
2022-09-18T21:39:38.890Z,0.10
2022-09-18T21:42:07.446Z,0.28
2022-09-18T21:44:37.837Z,0.20
2022-09-18T21:47:06.742Z,0.10
2022-09-18T21:49:34.029Z,0.30
2022-09-18T21:52:03.910Z,0.10
2022-09-18T21:54:33.942Z,0.10
2022-09-18T21:57:01.050Z,0.25
2022-09-18T21:59:30.499Z,0.20
2022-09-18T22:01:58.216Z,0.20
2022-09-18T22:04:27.036Z,0.10
2022-09-18T22:06:55.389Z,0.20
2022-09-18T22:09:24.686Z,0.10
2022-09-18T22:11:51.965Z,0.20
2022-09-18T22:14:22.739Z,0.10
2022-09-18T22:16:50.263Z,0.13
2022-09-18T22:19:17.355Z,0.20
2022-09-18T22:21:46.703Z,0.20
2022-09-18T22:24:19.095Z,0.28
2022-09-18T22:26:58.175Z,0.28
2022-09-18T22:29:34.149Z,0.10
2022-09-18T22:32:01.019Z,0.20
2022-09-18T22:34:30.192Z,0.05
2022-09-18T22:36:58.605Z,0.20
2022-09-18T22:39:25.277Z,0.20
2022-09-18T22:41:52.112Z,0.10
2022-09-18T22:44:21.311Z,0.22
2022-09-18T22:46:49.056Z,0.10
2022-09-18T22:49:17.310Z,0.20
2022-09-18T22:51:45.218Z,0.10
2022-09-18T22:54:13.462Z,0.10
2022-09-18T22:56:45.169Z,0.20
2022-09-18T22:59:13.474Z,0.20
2022-09-18T23:01:51.061Z,0.20
2022-09-18T23:04:19.172Z,0.20
2022-09-18T23:06:47.682Z,0.08
2022-09-18T23:09:15.293Z,0.10
2022-09-18T23:11:43.178Z,0.20
2022-09-18T23:14:13.974Z,0.22
2022-09-18T23:16:40.661Z,0.45
2022-09-18T23:19:12.977Z,0.10
2022-09-18T23:21:39.622Z,0.08
2022-09-18T23:24:09.147Z,0.50
2022-09-18T23:26:39.131Z,0.30
2022-09-18T23:29:08.281Z,0.20
2022-09-18T23:31:38.053Z,0.17
2022-09-18T23:34:10.315Z,0.10
2022-09-18T23:36:39.360Z,0.10
2022-09-18T23:39:10.241Z,0.20
2022-09-18T23:41:38.030Z,0.10
2022-09-18T23:44:06.593Z,0.10
2022-09-18T23:46:33.222Z,0.22
2022-09-18T23:48:59.985Z,0.10
2022-09-18T23:51:33.342Z,0.10
2022-09-18T23:54:01.657Z,0.10
2022-09-18T23:56:31.101Z,0.10
2022-09-18T23:59:00.253Z,0.10
